Sierra Blanca Regional Airport
KSRR : now visible

Aeroporto :











RITROVATECI SU...

 
LOGIN :

Iscrizione | Disclaimer

   EN    FR    IT 

 









Sommario :    VFR   VFR Marginale   IFR   IFR Intensivo   IFR Molto Intensivo
Visibilità : 
Base nubi : 
>= 8 km
>= 3000ft
5 / 8 km
1000 / 3000 ft
1500m / 5 km
500 / 1000 ft
800 / 1500m
200 / 500 ft
< 800m
< 200 ft
Simboli :   Temporali  Nebbia  Neve Forte  Precipitazioni Forti  Vento > 20 kt






- Altitudine del aeroporto : 6814 ft


KSRR - Sierra Blanca Regional

ULTIMO METAR :
  • 201015Z AUTO 14004KT 1/4SM FZFG OVC002 M01/M01 A3033 RMK AO2

METARs OBSOLETI :
  • 200955Z AUTO 11005KT 1/2SM FZFG OVC002 M01/M01 A3032 RMK AO2
  • 200935Z AUTO 11008KT 1 1/4SM BR OVC003 M01/M02 A3031 RMK AO2
  • 200915Z AUTO 12009KT 4SM BR BKN003 M01/M02 A3030 RMK AO2
  • 200855Z AUTO 15009KT 7SM CLR M02/M03 A3028 RMK AO2
  • 200835Z AUTO 13006KT 10SM CLR 00/M02 A3026 RMK AO2
  • 200815Z AUTO 32003KT 10SM CLR 05/M02 A3024 RMK AO2
  • 200755Z AUTO 31003KT 10SM CLR 05/M01 A3023 RMK AO2
  • 200735Z AUTO 31003KT 10SM CLR 05/M01 A3022 RMK AO2

TAF N/A



MetMap, La meteo Aeronautica in un colpo d'occhio ! - Copyright ORBIFLY Dicembre 2007 - Disclaimer

ORBIFLY MET'MAP TEAM :

Programmazione e sviluppo : Alexandra Zaïnal
Concezione : Baudouin d'Aumeries
Aiuto per la programmazione : Marc-Olivier Méhu
Supporto tecnico e logistico : Manuel Goepfert
Aiuto per la traduzione : Arnaldo La Scala

Contatto : metmap@orbifly.com




FONTI E CREDITI :

   NOAA       Earth
Advisory